Time;durP1;ratioP1;P1;durP2;ratioP2;P2;SDS_P1;SDS_P2;PMS_P1;PMS_P2;Temp;Humidity;BMP_temperature;BMP_pressure;BME280_temperature;BME280_humidity;BME280_pressure;Samples;Min_cycle;Max_cycle;Signal;HPM_P1;HPM_P2
2022/07/27 10:45:50;;;;;;;3.40;1.10;;;;;;;21.80;43.26;102204.63;5759944;24;20046;31
2022/07/27 10:48:39;;;;;;;1.83;1.17;;;;;;;21.80;42.97;102201.91;4750056;29;20496;-76
2022/07/27 10:51:17;;;;;;;3.20;1.20;;;;;;;21.70;42.81;102198.63;4787417;29;20112;-78
2022/07/27 10:53:44;;;;;;;1.65;1.05;;;;;;;21.86;43.00;102198.03;4794365;29;20054;-81
2022/07/27 10:56:50;;;;;;;2.70;1.23;;;;;;;22.34;42.17;102193.88;4785320;29;20075;-78
2022/07/27 10:59:37;;;;;;;2.10;1.00;;;;;;;22.58;41.72;102186.06;4778916;29;77806;-78
2022/07/27 11:02:41;;;;;;;4.25;1.08;;;;;;;23.30;40.89;102177.28;4749811;30;20132;-74
2022/07/27 11:05:10;;;;;;;1.95;0.90;;;;;;;23.76;37.41;102176.78;4750711;30;20542;-75
2022/07/27 11:07:57;;;;;;;2.45;0.93;;;;;;;23.97;38.21;102179.97;4750658;30;20116;-75
2022/07/27 11:10:44;;;;;;;3.28;0.90;;;;;;;24.24;37.62;102183.81;4750580;30;20124;-75
2022/07/27 11:13:11;;;;;;;5.68;1.05;;;;;;;24.20;37.42;102181.34;4750737;30;20057;-74
2022/07/27 11:15:38;;;;;;;1.20;0.80;;;;;;;24.27;37.20;102172.69;4750415;30;20059;-76
2022/07/27 11:18:04;;;;;;;2.42;1.00;;;;;;;24.50;37.68;102158.97;4749463;30;20060;-75
2022/07/27 11:20:31;;;;;;;1.42;0.98;;;;;;;24.55;37.95;102167.13;4764754;29;20048;-75
2022/07/27 11:22:58;;;;;;;3.38;0.82;;;;;;;24.38;37.13;102158.31;4785068;29;20047;-74
2022/07/27 11:25:58;;;;;;;5.10;1.10;;;;;;;24.20;37.28;102165.03;4786983;29;20139;-75
2022/07/27 11:28:29;;;;;;;2.65;1.55;;;;;;;24.01;37.90;102158.66;4786117;29;20082;-74
2022/07/27 11:30:57;;;;;;;3.08;2.17;;;;;;;23.85;37.88;102160.22;4785853;29;20497;-75
2022/07/27 11:33:23;;;;;;;2.88;1.30;;;;;;;23.72;38.47;102154.53;4785009;29;20151;-75
2022/07/27 11:35:55;;;;;;;2.00;1.20;;;;;;;23.67;38.89;102155.28;4786874;29;20059;-73
2022/07/27 11:38:22;;;;;;;1.27;0.70;;;;;;;23.53;38.58;102154.34;4786509;29;20525;-75
2022/07/27 11:40:51;;;;;;;1.42;1.15;;;;;;;23.23;39.08;102158.78;4785581;29;20402;-74
2022/07/27 11:43:42;;;;;;;1.33;1.00;;;;;;;23.06;39.70;102149.88;4786634;29;20083;-74
2022/07/27 11:46:12;;;;;;;1.90;1.08;;;;;;;23.03;38.60;102154.34;4786057;29;20056;-75
2022/07/27 11:48:46;;;;;;;1.00;1.00;;;;;;;23.21;38.96;102163.94;4781491;29;20058;-76
2022/07/27 11:51:38;;;;;;;1.92;1.02;;;;;;;23.35;38.71;102162.22;4768408;30;20062;-76
2022/07/27 11:54:10;;;;;;;2.40;0.60;;;;;;;23.34;38.64;102156.06;4768286;30;20429;-75
2022/07/27 11:56:42;;;;;;;0.82;0.82;;;;;;;23.33;38.21;102165.44;4767357;30;20048;-76
2022/07/27 11:59:18;;;;;;;3.88;1.08;;;;;;;23.77;37.22;102155.78;4768042;30;20052;-75
2022/07/27 12:01:59;;;;;;;0.60;0.60;;;;;;;23.68;38.15;102159.50;4768793;30;20052;-75
2022/07/27 12:04:34;;;;;;;2.33;0.90;;;;;;;23.33;38.25;102159.25;4768329;30;20048;-76
2022/07/27 12:07:02;;;;;;;4.18;0.90;;;;;;;22.87;38.01;102165.91;4768421;30;20056;-75
2022/07/27 12:09:31;;;;;;;2.75;0.85;;;;;;;22.59;38.56;102169.28;4766807;30;20506;-76
2022/07/27 12:12:08;;;;;;;5.05;0.80;;;;;;;22.49;40.06;102159.13;4767725;30;20509;-76
2022/07/27 12:14:41;;;;;;;2.10;0.70;;;;;;;22.53;39.08;102156.91;4767767;30;20079;-75
2022/07/27 12:17:18;;;;;;;5.60;1.00;;;;;;;22.36;41.12;102162.31;4768158;30;20515;-75
2022/07/27 12:19:53;;;;;;;3.65;1.23;;;;;;;22.23;42.51;102160.03;4768334;30;20056;-76
2022/07/27 12:22:44;;;;;;;2.72;1.10;;;;;;;22.23;42.48;102160.03;4768804;30;20489;-76
2022/07/27 12:25:17;;;;;;;1.98;1.05;;;;;;;21.99;43.25;102158.91;4768250;30;20521;-74
2022/07/27 12:28:03;;;;;;;2.08;0.85;;;;;;;22.23;43.19;102162.75;4767777;30;20060;-76
2022/07/27 12:30:34;;;;;;;4.88;1.10;;;;;;;22.37;42.89;102161.06;4768123;30;20052;-74
2022/07/27 12:33:03;;;;;;;0.80;0.80;;;;;;;22.32;42.17;102153.66;4768179;30;20507;-74
2022/07/27 12:35:33;;;;;;;2.40;0.95;;;;;;;22.28;41.47;102162.03;4768089;30;20056;-73
2022/07/27 12:38:06;;;;;;;2.05;0.88;;;;;;;22.10;40.68;102153.56;4768340;30;20048;-73
2022/07/27 12:40:42;;;;;;;3.33;0.95;;;;;;;22.03;39.81;102154.75;4768008;30;20064;-73
2022/07/27 12:43:08;;;;;;;4.03;0.90;;;;;;;21.89;39.40;102147.50;4767562;30;20056;-71
2022/07/27 12:45:37;;;;;;;2.35;0.90;;;;;;;21.79;40.84;102149.66;4767870;30;20048;-72
2022/07/27 12:48:08;;;;;;;1.65;1.08;;;;;;;21.70;41.81;102149.13;4767171;30;20069;-75
2022/07/27 12:50:34;;;;;;;2.35;1.10;;;;;;;21.73;40.82;102151.59;4767841;30;20052;-75
2022/07/27 12:53:01;;;;;;;1.75;0.95;;;;;;;21.74;41.25;102155.06;4767585;30;20555;-75
2022/07/27 12:55:27;;;;;;;6.28;1.00;;;;;;;21.71;40.20;102150.59;4767350;30;20127;-73
2022/07/27 12:57:54;;;;;;;1.13;1.02;;;;;;;21.60;40.75;102159.41;4766873;30;20059;-74
2022/07/27 13:00:24;;;;;;;4.63;1.10;;;;;;;21.46;40.73;102165.72;4767079;30;20123;-77
2022/07/27 13:02:59;;;;;;;3.35;1.33;;;;;;;21.42;39.65;102171.34;4767765;30;20052;-78
2022/07/27 13:05:26;;;;;;;1.63;0.90;;;;;;;21.59;40.06;102153.22;4767836;30;20048;-76
2022/07/27 13:07:53;;;;;;;1.92;1.10;;;;;;;21.99;38.23;102161.63;4767675;30;20052;-76
2022/07/27 13:10:19;;;;;;;0.98;0.60;;;;;;;21.94;37.70;102155.69;4768042;30;20084;-75
2022/07/27 13:12:47;;;;;;;1.40;0.77;;;;;;;22.07;38.30;102157.22;4767051;30;20563;-73
2022/07/27 13:15:14;;;;;;;1.48;0.80;;;;;;;22.36;38.81;102161.56;4767083;29;20060;-73
2022/07/27 13:17:42;;;;;;;3.38;0.88;;;;;;;22.43;38.93;102161.81;4765965;30;20060;-73
2022/07/27 13:20:09;;;;;;;1.15;0.82;;;;;;;22.37;36.34;102161.06;4767211;30;20052;-74
2022/07/27 13:22:37;;;;;;;13.27;1.30;;;;;;;22.47;38.48;102153.44;4767459;30;20056;-74
2022/07/27 13:25:05;;;;;;;2.95;0.85;;;;;;;22.60;36.13;102149.06;4767033;30;20371;-74
2022/07/27 13:27:43;;;;;;;7.70;1.00;;;;;;;22.66;36.39;102148.31;4770123;30;20052;-74
2022/07/27 13:30:12;;;;;;;0.70;0.70;;;;;;;22.62;36.12;102148.56;4769753;30;20446;-75
2022/07/27 13:32:40;;;;;;;3.13;0.77;;;;;;;22.54;35.79;102142.88;4769588;30;20484;-76
2022/07/27 13:35:08;;;;;;;2.08;1.08;;;;;;;22.47;36.78;102150.72;4770039;30;20056;-78
2022/07/27 13:37:35;;;;;;;2.65;0.80;;;;;;;22.35;38.45;102149.97;4770052;30;20055;-77
2022/07/27 13:40:03;;;;;;;3.10;0.70;;;;;;;22.42;38.66;102144.06;4769800;30;20052;-73
2022/07/27 13:42:30;;;;;;;1.77;1.00;;;;;;;22.43;38.76;102144.78;4770216;30;20081;-73
2022/07/27 13:45:00;;;;;;;14.07;2.08;;;;;;;22.45;37.10;102136.91;4769978;30;20056;-73
2022/07/27 13:47:35;;;;;;;6.47;0.90;;;;;;;22.41;36.87;102141.81;4770009;30;20130;-73
2022/07/27 13:50:03;;;;;;;5.78;0.90;;;;;;;22.40;37.30;102134.91;4770101;30;20490;-74
2022/07/27 13:52:30;;;;;;;2.33;0.63;;;;;;;22.29;35.38;102141.06;4769796;30;20052;-73
2022/07/27 13:54:56;;;;;;;2.88;0.80;;;;;;;22.19;37.54;102132.41;4769167;30;20430;-73
2022/07/27 13:57:23;;;;;;;6.60;0.75;;;;;;;22.30;38.40;102134.41;4769113;30;20056;-75
2022/07/27 13:59:49;;;;;;;5.53;0.90;;;;;;;22.25;38.56;102127.75;4768923;30;20628;-74
2022/07/27 14:02:16;;;;;;;0.57;0.50;;;;;;;22.09;37.25;102131.13;4770128;30;20055;-75
2022/07/27 14:04:48;;;;;;;2.53;1.00;;;;;;;22.15;39.62;102125.72;4769797;30;20052;-74
2022/07/27 14:07:15;;;;;;;1.75;0.77;;;;;;;22.23;39.02;102124.78;4770307;30;20059;-73
2022/07/27 14:12:27;;;;;;;2.15;0.88;;;;;;;21.95;37.97;102127.34;4769998;30;20234;-76
2022/07/27 14:14:53;;;;;;;1.90;0.73;;;;;;;22.01;37.82;102116.53;4769472;30;20064;-77
2022/07/27 14:17:20;;;;;;;1.05;0.85;;;;;;;22.07;38.18;102116.56;4769820;30;20067;-76
2022/07/27 14:19:47;;;;;;;0.82;0.80;;;;;;;22.08;37.62;102115.34;4769984;30;20497;-76
2022/07/27 14:22:14;;;;;;;3.50;0.70;;;;;;;22.06;37.32;102104.97;4768697;29;20502;-76
2022/07/27 14:24:42;;;;;;;0.73;0.70;;;;;;;21.82;38.56;102102.63;4769081;30;20091;-74
2022/07/27 14:27:08;;;;;;;1.02;0.75;;;;;;;21.75;38.72;102105.78;4769532;30;20059;-82
2022/07/27 14:29:35;;;;;;;4.47;0.80;;;;;;;21.93;38.36;102102.69;4769775;30;20048;-79
2022/07/27 14:32:01;;;;;;;1.13;0.68;;;;;;;21.86;38.31;102099.69;4769253;30;20102;-82
2022/07/27 14:34:31;;;;;;;1.27;0.63;;;;;;;21.71;37.69;102093.69;4769555;30;20510;-77
2022/07/27 14:36:57;;;;;;;2.78;1.15;;;;;;;21.68;37.41;102097.38;4767300;30;20560;-80
2022/07/27 14:39:24;;;;;;;1.90;0.70;;;;;;;21.66;38.75;102084.31;4768632;30;20056;-77
2022/07/27 14:41:50;;;;;;;3.78;0.60;;;;;;;21.69;37.47;102083.34;4769450;30;20045;-77
2022/07/27 14:44:17;;;;;;;0.63;0.60;;;;;;;21.62;37.69;102083.78;4769726;30;20166;-76
2022/07/27 14:46:45;;;;;;;0.88;0.60;;;;;;;21.60;36.85;102083.53;4768712;30;20059;-76
2022/07/27 14:49:13;;;;;;;4.75;0.80;;;;;;;21.51;37.42;102084.47;4769547;30;20110;-77
2022/07/27 14:51:40;;;;;;;4.68;0.70;;;;;;;21.34;37.15;102086.34;4769524;30;20105;-80
2022/07/27 14:54:06;;;;;;;0.98;0.70;;;;;;;21.14;37.44;102086.41;4768788;30;20048;-73
2022/07/27 14:56:35;;;;;;;6.10;0.98;;;;;;;21.23;37.33;102080.84;4769240;30;20529;-80
2022/07/27 14:59:02;;;;;;;1.85;0.90;;;;;;;21.24;37.46;102074.19;4769092;30;20056;-77
2022/07/27 15:01:29;;;;;;;4.47;0.70;;;;;;;21.32;37.79;102079.91;4769201;30;20063;-80
2022/07/27 15:03:55;;;;;;;1.10;0.60;;;;;;;21.23;37.42;102078.13;4769120;30;20568;-80
2022/07/27 15:06:22;;;;;;;1.33;0.70;;;;;;;21.28;38.06;102080.13;4769142;30;20064;-77
2022/07/27 15:08:48;;;;;;;1.00;0.77;;;;;;;21.37;39.04;102088.06;4767598;30;20056;-83
2022/07/27 15:11:15;;;;;;;7.57;0.70;;;;;;;21.37;38.98;102081.91;4769720;30;20110;-81
2022/07/27 15:13:42;;;;;;;1.33;0.73;;;;;;;21.38;38.47;102081.44;4767701;30;20063;-77
2022/07/27 15:16:10;;;;;;;0.50;0.50;;;;;;;21.31;38.23;102079.16;4768794;30;20056;-79
2022/07/27 15:18:37;;;;;;;1.55;0.68;;;;;;;21.32;37.12;102086.06;4768862;30;20048;-78
2022/07/27 15:21:05;;;;;;;0.95;0.68;;;;;;;21.27;38.39;102084.06;4769093;30;20410;-81
2022/07/27 15:23:38;;;;;;;0.65;0.60;;;;;;;21.32;38.70;102085.31;4767045;30;20509;-79
2022/07/27 15:26:05;;;;;;;1.10;0.82;;;;;;;21.32;38.31;102083.38;4768881;30;20564;-76
2022/07/27 15:28:35;;;;;;;1.38;0.70;;;;;;;21.40;38.49;102076.28;4768680;30;20501;-76
2022/07/27 15:31:01;;;;;;;3.40;0.90;;;;;;;21.41;38.32;102077.75;4768932;30;20060;-77
2022/07/27 15:33:28;;;;;;;1.75;0.70;;;;;;;21.44;36.64;102081.47;4781464;29;20048;-74
2022/07/27 15:35:55;;;;;;;2.75;0.60;;;;;;;21.47;38.23;102075.09;4786458;29;20509;-75
2022/07/27 15:38:21;;;;;;;0.85;0.55;;;;;;;21.39;38.53;102074.78;4785788;29;20421;-75
2022/07/27 15:40:48;;;;;;;1.35;0.73;;;;;;;21.39;39.59;102069.38;4785942;29;20056;-75
2022/07/27 15:43:16;;;;;;;1.48;0.90;;;;;;;21.40;40.43;102065.44;4786988;29;20051;-74
2022/07/27 15:45:46;;;;;;;4.57;1.05;;;;;;;21.22;41.88;102071.22;4786449;29;20121;-74
2022/07/27 15:48:14;;;;;;;1.33;0.70;;;;;;;20.94;41.34;102068.28;4785737;29;20054;-74
2022/07/27 15:50:44;;;;;;;0.88;0.75;;;;;;;20.75;42.91;102067.88;4785978;29;20048;-74
2022/07/27 15:53:12;;;;;;;3.50;1.02;;;;;;;20.67;44.46;102061.41;4786360;29;20047;-74
2022/07/27 15:55:41;;;;;;;2.20;0.85;;;;;;;20.85;44.69;102060.31;4786397;29;20055;-75
2022/07/27 15:58:08;;;;;;;2.80;1.20;;;;;;;21.02;45.35;102052.34;4786215;29;20059;-75
2022/07/27 16:00:36;;;;;;;4.30;0.90;;;;;;;21.10;45.20;102050.69;4781256;29;20058;-72
2022/07/27 16:03:11;;;;;;;4.25;1.08;;;;;;;21.20;45.70;102060.84;4768365;30;20115;-74
2022/07/27 16:05:41;;;;;;;2.10;0.85;;;;;;;21.29;45.58;102049.13;4767512;30;20597;-73
2022/07/27 16:08:09;;;;;;;0.98;0.65;;;;;;;21.32;44.93;102059.00;4768148;30;20056;-74
2022/07/27 16:10:37;;;;;;;3.33;0.95;;;;;;;21.34;44.79;102059.25;4768513;29;20096;-72
2022/07/27 16:13:08;;;;;;;1.27;0.93;;;;;;;21.17;44.32;102058.38;4768378;30;20052;-75
2022/07/27 16:18:27;;;;;;;1.52;1.00;;;;;;;21.01;45.67;102057.03;4768056;30;20052;-75
2022/07/27 16:20:57;;;;;;;1.70;0.75;;;;;;;20.86;44.78;102054.44;4767574;29;20048;-74
2022/07/27 16:23:24;;;;;;;1.48;0.90;;;;;;;20.75;44.95;102065.19;4768097;30;20502;-74
2022/07/27 16:25:54;;;;;;;1.23;0.70;;;;;;;20.68;45.37;102059.44;4768154;30;20089;-74
2022/07/27 16:28:34;;;;;;;5.75;1.00;;;;;;;20.59;45.11;102061.09;4768262;30;20135;-73
2022/07/27 16:31:01;;;;;;;1.95;0.90;;;;;;;20.60;45.01;102054.47;4767881;30;20048;-73
2022/07/27 16:33:29;;;;;;;1.17;0.75;;;;;;;20.56;45.77;102059.34;4767922;30;20048;-74
2022/07/27 16:35:55;;;;;;;1.33;0.80;;;;;;;20.60;46.38;102056.44;4767461;30;20060;-72
2022/07/27 16:38:21;;;;;;;1.15;1.00;;;;;;;20.68;46.85;102057.50;4767954;30;20505;-71
2022/07/27 16:40:48;;;;;;;3.65;1.02;;;;;;;20.60;46.94;102062.59;4768232;30;20671;-73
2022/07/27 16:43:15;;;;;;;3.97;0.98;;;;;;;20.65;46.52;102058.44;4768004;30;20102;-72
2022/07/27 16:45:41;;;;;;;3.30;0.90;;;;;;;20.60;46.55;102056.44;4767732;30;20569;-72
2022/07/27 16:48:08;;;;;;;1.33;0.70;;;;;;;20.57;46.96;102051.97;4767384;30;20067;-74
2022/07/27 16:50:35;;;;;;;2.78;1.30;;;;;;;20.53;47.39;102057.59;4767361;30;20047;-74
2022/07/27 16:53:01;;;;;;;3.40;1.63;;;;;;;20.45;47.12;102055.78;4767509;30;20082;-74
2022/07/27 16:55:28;;;;;;;2.33;1.10;;;;;;;20.36;47.39;102056.66;4766216;30;20078;-74
2022/07/27 16:57:55;;;;;;;6.32;1.50;;;;;;;20.23;47.72;102054.31;4767697;30;20048;-74
2022/07/27 17:00:21;;;;;;;4.38;1.70;;;;;;;20.18;47.67;102063.09;4770871;30;20478;-75
2022/07/27 17:02:48;;;;;;;4.18;1.02;;;;;;;20.06;47.44;102058.78;4771085;30;20521;-74
2022/07/27 17:05:18;;;;;;;5.65;1.10;;;;;;;19.98;48.21;102055.00;4770430;30;20123;-76
2022/07/27 17:07:44;;;;;;;4.38;1.10;;;;;;;19.94;47.94;102051.78;4770955;30;20052;-75
2022/07/27 17:10:11;;;;;;;3.08;1.52;;;;;;;19.94;48.17;102047.09;4770774;30;20074;-74
2022/07/27 17:12:52;;;;;;;2.17;1.02;;;;;;;19.89;48.85;102050.47;4770890;30;20045;-77
2022/07/27 17:15:19;;;;;;;6.43;1.38;;;;;;;19.90;48.19;102051.97;4769625;30;21038;-74
2022/07/27 17:17:46;;;;;;;2.67;0.98;;;;;;;19.84;47.48;102050.41;4770026;30;20052;-74
2022/07/27 17:20:12;;;;;;;19.77;12.82;;;;;;;19.78;47.49;102055.00;4770583;30;20209;-74
2022/07/27 17:22:41;;;;;;;2.60;1.25;;;;;;;19.82;47.44;102053.59;4770468;30;20052;-74
2022/07/27 17:25:08;;;;;;;1.95;1.10;;;;;;;19.78;48.03;102046.88;4769996;29;20551;-73
2022/07/27 17:27:34;;;;;;;13.35;1.75;;;;;;;19.77;48.52;102053.50;4770293;30;20063;-75
2022/07/27 17:30:03;;;;;;;4.28;1.45;;;;;;;19.75;48.54;102053.22;4770437;30;20048;-75
2022/07/27 17:32:29;;;;;;;6.57;1.10;;;;;;;19.71;48.29;102052.69;4769822;30;20063;-75
2022/07/27 17:34:56;;;;;;;6.38;0.95;;;;;;;19.70;48.67;102048.50;4770353;30;20060;-74
2022/07/27 17:37:22;;;;;;;4.22;1.10;;;;;;;19.65;48.47;102053.34;4770201;29;20059;-74
2022/07/27 17:39:49;;;;;;;2.35;0.90;;;;;;;19.63;48.15;102055.78;4770815;30;20494;-75
2022/07/27 17:42:15;;;;;;;4.13;0.90;;;;;;;19.59;48.23;102055.22;4770653;30;20055;-75
2022/07/27 17:44:42;;;;;;;3.38;0.90;;;;;;;19.60;48.17;102054.03;4770388;30;20052;-75
2022/07/27 17:47:08;;;;;;;0.82;0.82;;;;;;;19.61;47.90;102058.22;4769339;30;20067;-75
2022/07/27 17:49:35;;;;;;;2.47;1.10;;;;;;;19.58;48.28;102056.47;4770207;30;20118;-75
2022/07/27 17:52:02;;;;;;;4.88;1.10;;;;;;;19.54;47.71;102053.22;4769902;30;20059;-74
2022/07/27 17:54:28;;;;;;;4.72;1.08;;;;;;;19.47;47.75;102055.53;4770133;30;20525;-73
2022/07/27 17:56:55;;;;;;;4.97;1.10;;;;;;;19.44;47.91;102057.22;4769999;30;20174;-74
2022/07/27 17:59:22;;;;;;;4.82;0.77;;;;;;;19.43;48.01;102061.13;4769999;30;20052;-73
2022/07/27 18:02:04;;;;;;;2.15;0.75;;;;;;;19.39;47.73;102041.69;4769496;30;20080;-72
2022/07/27 18:04:33;;;;;;;2.50;0.90;;;;;;;19.39;47.84;102052.47;4770178;30;20490;-73
2022/07/27 18:07:04;;;;;;;2.72;0.90;;;;;;;19.30;48.27;102058.72;4770238;30;20540;-73
2022/07/27 18:09:32;;;;;;;1.15;0.85;;;;;;;19.24;49.06;102057.16;4768823;30;20525;-74
2022/07/27 18:11:58;;;;;;;1.70;0.95;;;;;;;19.26;49.40;102049.34;4769317;30;20048;-76
2022/07/27 18:14:25;;;;;;;3.50;1.08;;;;;;;19.22;49.56;102046.81;4770013;30;20052;-74
2022/07/27 18:16:51;;;;;;;3.58;1.70;;;;;;;19.24;49.86;102049.78;4769562;30;20157;-77
2022/07/27 18:19:18;;;;;;;2.17;0.90;;;;;;;19.21;49.81;102052.69;4768819;29;20498;-77
2022/07/27 18:21:44;;;;;;;0.85;0.80;;;;;;;19.15;49.74;102049.94;4769595;30;20209;-73
2022/07/27 18:24:11;;;;;;;1.40;0.90;;;;;;;19.14;50.57;102048.44;4769826;30;20056;-75
2022/07/27 18:26:42;;;;;;;2.50;0.70;;;;;;;19.08;50.49;102046.84;4769652;30;20059;-75
2022/07/27 18:29:08;;;;;;;2.75;0.90;;;;;;;19.04;50.71;102049.75;4769602;30;20063;-74
2022/07/27 18:31:36;;;;;;;3.08;1.10;;;;;;;18.98;51.05;102057.75;4769012;30;20056;-75
2022/07/27 18:34:03;;;;;;;5.07;1.00;;;;;;;18.92;50.82;102054.22;4769697;30;20218;-74
2022/07/27 18:36:37;;;;;;;2.42;0.90;;;;;;;18.84;51.05;102053.09;4769632;30;20130;-74
2022/07/27 18:39:04;;;;;;;2.67;0.90;;;;;;;18.80;51.27;102054.47;4769359;30;20506;-74
2022/07/27 18:41:31;;;;;;;5.07;0.95;;;;;;;18.78;51.86;102056.94;4769434;29;20595;-74
2022/07/27 18:43:59;;;;;;;3.70;1.20;;;;;;;18.73;52.09;102054.88;4769433;29;20090;-75
2022/07/27 18:46:26;;;;;;;2.00;1.15;;;;;;;18.68;52.12;102056.25;4768222;30;20121;-74
2022/07/27 18:48:52;;;;;;;6.55;0.90;;;;;;;18.70;52.63;102061.94;4769455;30;20048;-74
2022/07/27 18:51:19;;;;;;;6.43;1.00;;;;;;;18.64;52.90;102058.41;4769508;30;20046;-75
2022/07/27 18:53:48;;;;;;;6.78;1.17;;;;;;;18.61;52.81;102064.72;4769342;30;20498;-75
2022/07/27 18:56:15;;;;;;;6.00;1.20;;;;;;;18.56;53.49;102063.38;4769526;30;20071;-74
2022/07/27 18:58:41;;;;;;;3.45;1.08;;;;;;;18.56;53.16;102068.03;4769244;30;20555;-74
2022/07/27 19:01:08;;;;;;;5.85;1.27;;;;;;;18.53;53.37;102066.25;4768861;30;20048;-74
2022/07/27 19:03:36;;;;;;;2.58;0.80;;;;;;;18.52;53.35;102070.91;4769333;30;20056;-75
2022/07/27 19:06:04;;;;;;;4.22;1.23;;;;;;;18.49;53.31;102065.69;4768958;30;20056;-74
2022/07/27 19:08:31;;;;;;;5.35;1.40;;;;;;;18.45;53.07;102070.50;4769207;30;20114;-76
2022/07/27 19:11:00;;;;;;;4.88;1.73;;;;;;;18.41;53.53;102068.00;4768729;30;20161;-75
2022/07/27 19:13:28;;;;;;;1.95;1.00;;;;;;;18.35;53.09;102069.84;4768966;30;20052;-76
2022/07/27 19:15:55;;;;;;;4.93;1.42;;;;;;;18.32;53.04;102066.13;4768485;30;20052;-75
2022/07/27 19:18:23;;;;;;;6.32;1.00;;;;;;;18.32;53.25;102074.22;4768952;30;20048;-75
2022/07/27 19:20:50;;;;;;;2.33;1.20;;;;;;;18.26;52.67;102078.00;4769002;30;20487;-75
2022/07/27 19:23:16;;;;;;;2.33;1.10;;;;;;;18.21;52.56;102076.69;4768322;30;20052;-74
2022/07/27 19:25:46;;;;;;;2.75;1.00;;;;;;;18.15;52.72;102085.88;4768534;30;20060;-74
2022/07/27 19:28:15;;;;;;;2.20;0.88;;;;;;;18.08;53.05;102086.19;4768389;30;20052;-74
2022/07/27 19:30:41;;;;;;;5.10;1.10;;;;;;;18.03;53.77;102089.53;4768821;30;20049;-75
2022/07/27 19:33:08;;;;;;;1.98;1.13;;;;;;;17.98;54.18;102088.97;4768711;30;20122;-75
2022/07/27 19:35:37;;;;;;;4.60;1.40;;;;;;;17.89;54.30;102086.34;4768462;30;20545;-75
2022/07/27 19:38:04;;;;;;;1.38;1.20;;;;;;;17.80;54.80;102097.16;4768546;30;20064;-74
2022/07/27 19:40:32;;;;;;;1.23;0.82;;;;;;;17.73;55.13;102089.41;4768604;29;20520;-74
2022/07/27 19:43:16;;;;;;;1.42;1.00;;;;;;;17.67;55.11;102091.97;4768170;30;20614;-74
2022/07/27 19:45:46;;;;;;;2.97;1.15;;;;;;;17.60;55.30;102102.28;4767924;29;20837;-75
2022/07/27 19:48:12;;;;;;;2.90;1.20;;;;;;;17.55;55.76;102106.38;4785409;29;20060;-74
2022/07/27 19:50:44;;;;;;;1.85;1.00;;;;;;;17.47;56.19;102107.13;4779254;29;20119;-74
2022/07/27 19:53:11;;;;;;;2.33;1.05;;;;;;;17.42;55.87;102105.06;4768416;30;20097;-74
2022/07/27 19:55:37;;;;;;;2.90;1.35;;;;;;;17.34;55.98;102102.69;4767034;30;20063;-73
2022/07/27 19:58:04;;;;;;;2.13;0.98;;;;;;;17.30;56.86;102112.13;4767596;30;20059;-81
2022/07/27 20:00:30;;;;;;;4.03;0.90;;;;;;;17.24;56.56;102119.31;4766843;30;20048;-80
2022/07/27 20:02:58;;;;;;;7.07;1.25;;;;;;;17.18;56.66;102118.44;4768233;30;20426;-80
2022/07/27 20:05:25;;;;;;;2.65;1.10;;;;;;;17.15;57.46;102120.09;4766538;30;20147;-79
2022/07/27 20:07:52;;;;;;;1.55;1.13;;;;;;;17.07;57.54;102124.28;4768066;30;20056;-79
2022/07/27 20:10:20;;;;;;;4.53;1.27;;;;;;;17.05;57.56;102118.59;4781283;29;20063;-79
2022/07/27 20:12:47;;;;;;;8.95;1.30;;;;;;;17.00;57.57;102127.28;4779026;29;20052;-78
2022/07/27 20:15:13;;;;;;;7.90;1.33;;;;;;;16.97;57.81;102120.84;4785272;29;20043;-78
2022/07/27 20:17:40;;;;;;;5.38;1.00;;;;;;;16.92;58.13;102120.72;4784482;29;20047;-76
2022/07/27 20:20:08;;;;;;;4.07;1.30;;;;;;;16.85;58.66;102121.75;4784276;29;20098;-80
2022/07/27 20:22:40;;;;;;;3.53;1.30;;;;;;;16.78;58.92;102130.16;4784029;29;20058;-79
2022/07/27 20:25:09;;;;;;;8.13;1.15;;;;;;;16.73;59.17;102130.75;4785258;29;20067;-84
2022/07/27 20:27:36;;;;;;;5.40;1.50;;;;;;;16.67;59.24;102135.22;4785436;29;20072;-84
2022/07/27 20:30:07;;;;;;;3.95;1.15;;;;;;;16.61;59.22;102135.03;4782388;29;20498;-84
2022/07/27 20:32:34;;;;;;;7.78;1.38;;;;;;;16.55;59.32;102133.38;4781884;29;20059;-83
2022/07/27 20:35:01;;;;;;;6.10;1.20;;;;;;;16.49;59.34;102145.91;4787146;29;20047;-83
2022/07/27 20:37:27;;;;;;;6.22;1.30;;;;;;;16.42;60.04;102132.78;4787504;29;20052;-82
2022/07/27 20:39:56;;;;;;;4.72;1.17;;;;;;;16.38;59.92;102140.25;4787513;29;20600;-83
2022/07/27 20:42:23;;;;;;;4.22;1.05;;;;;;;16.33;59.83;102133.53;4786631;29;20055;-80
2022/07/27 20:44:49;;;;;;;4.20;1.20;;;;;;;16.24;60.52;102128.13;4787419;29;20052;-80
2022/07/27 20:47:16;;;;;;;2.72;1.20;;;;;;;16.20;60.46;102135.56;4787244;29;20067;-78
2022/07/27 20:49:43;;;;;;;3.80;1.02;;;;;;;16.15;60.45;102134.22;4785966;29;20109;-77
2022/07/27 20:52:11;;;;;;;3.47;1.17;;;;;;;16.11;60.44;102136.31;4787240;29;20056;-77
2022/07/27 20:54:38;;;;;;;3.00;1.42;;;;;;;16.05;61.00;102138.06;4787731;29;20055;-81
2022/07/27 20:57:08;;;;;;;2.28;1.30;;;;;;;15.98;60.99;102124.94;4786824;29;20055;-79
2022/07/27 20:59:34;;;;;;;2.55;1.08;;;;;;;15.95;61.05;102131.94;4787314;29;20050;-78
2022/07/27 21:02:01;;;;;;;2.55;1.20;;;;;;;15.89;60.92;102133.72;4788518;29;20212;-81
2022/07/27 21:04:28;;;;;;;1.27;1.08;;;;;;;15.84;61.50;102136.22;4786839;29;20051;-81
2022/07/27 21:06:54;;;;;;;5.28;1.45;;;;;;;15.82;61.30;102141.28;4788318;29;20066;-81
2022/07/27 21:09:21;;;;;;;3.45;1.10;;;;;;;15.77;61.60;102139.91;4788397;29;20046;-80
2022/07/27 21:11:48;;;;;;;2.33;1.00;;;;;;;15.70;61.98;102134.81;4786585;29;20059;-81
2022/07/27 21:14:14;;;;;;;7.07;1.20;;;;;;;15.69;62.31;102141.38;4788501;29;20048;-88
2022/07/27 21:16:41;;;;;;;4.53;1.33;;;;;;;15.65;61.97;102138.81;4788360;29;20414;-80
2022/07/27 21:19:08;;;;;;;1.73;1.15;;;;;;;15.61;62.17;102143.56;4787265;29;20044;-84
2022/07/27 21:21:38;;;;;;;4.05;1.80;;;;;;;15.57;62.42;102147.59;4786668;29;20496;-82
2022/07/27 21:24:13;;;;;;;2.58;1.13;;;;;;;15.53;62.55;102141.59;4787091;29;20052;-77
2022/07/27 21:26:44;;;;;;;5.07;1.60;;;;;;;15.51;62.47;102146.63;4788387;29;20056;-78
2022/07/27 21:29:11;;;;;;;2.38;1.08;;;;;;;15.47;62.56;102136.03;4772144;29;20122;-81
2022/07/27 21:31:38;;;;;;;3.35;1.20;;;;;;;15.40;62.90;102141.66;4788121;29;20114;-79
2022/07/27 21:34:08;;;;;;;3.75;0.93;;;;;;;15.38;62.86;102146.72;4788068;29;20051;-82
2022/07/27 21:36:34;;;;;;;2.47;1.27;;;;;;;15.31;62.96;102147.72;4787991;29;20060;-75
2022/07/27 21:39:01;;;;;;;2.75;1.30;;;;;;;15.27;62.95;102138.28;4787584;29;20056;-79
2022/07/27 21:41:28;;;;;;;1.77;1.27;;;;;;;15.23;63.42;102135.72;4788154;29;20058;-79
2022/07/27 21:43:54;;;;;;;1.75;1.30;;;;;;;15.18;63.59;102132.88;4788051;29;20051;-79
2022/07/27 21:46:21;;;;;;;5.93;1.60;;;;;;;15.15;63.56;102133.75;4770141;29;20455;-79
2022/07/27 21:48:48;;;;;;;1.90;1.45;;;;;;;15.07;63.91;102137.88;4788210;29;20092;-79
2022/07/27 21:51:17;;;;;;;2.40;1.40;;;;;;;15.03;64.11;102135.31;4788108;29;20056;-78
2022/07/27 21:53:44;;;;;;;3.92;1.40;;;;;;;15.00;64.48;102134.25;4787259;29;20055;-78
2022/07/27 21:56:12;;;;;;;2.88;1.30;;;;;;;14.95;64.36;102129.44;4787898;29;20062;-77
2022/07/27 21:58:40;;;;;;;2.22;1.23;;;;;;;14.92;64.36;102126.88;4787940;29;20429;-77
2022/07/27 22:01:07;;;;;;;6.28;1.30;;;;;;;14.87;64.70;102132.78;4771731;29;20574;-77
2022/07/27 22:03:35;;;;;;;1.15;1.13;;;;;;;14.84;64.49;102141.72;4787818;29;20052;-77
2022/07/27 22:06:03;;;;;;;2.70;1.45;;;;;;;14.80;64.78;102128.41;4787727;29;20179;-78
2022/07/27 22:08:30;;;;;;;1.75;1.20;;;;;;;14.77;64.95;102132.00;4771046;29;20074;-77
2022/07/27 22:10:57;;;;;;;1.90;1.20;;;;;;;14.74;64.58;102140.16;4787545;29;20067;-77
2022/07/27 22:13:24;;;;;;;3.05;1.40;;;;;;;14.69;64.76;102141.47;4787556;29;20059;-77
2022/07/27 22:15:50;;;;;;;1.90;1.38;;;;;;;14.66;64.82;102143.06;4787499;29;20531;-77
2022/07/27 22:18:17;;;;;;;10.38;1.65;;;;;;;14.64;65.11;102147.38;4787886;29;20052;-77
2022/07/27 22:20:43;;;;;;;2.85;1.25;;;;;;;14.60;65.21;102144.06;4787047;29;20056;-77
2022/07/27 22:23:10;;;;;;;1.13;1.10;;;;;;;14.57;65.27;102140.31;4787164;29;20047;-77